Time;durP1;ratioP1;P1;durP2;ratioP2;P2;SDS_P1;SDS_P2;PMS_P1;PMS_P2;Temp;Humidity;BMP_temperature;BMP_pressure;BME280_temperature;BME280_humidity;BME280_pressure;Samples;Min_cycle;Max_cycle;Signal;HPM_P1;HPM_P2
2019/04/01 00:01:21;;;;;;;3.8;3.4;;;;;;;24.18;25.63379;1005.793;;;;
2019/04/01 00:03:55;;;;;;;3.9;3.6;;;;;;;24.18;25.64551;1005.775;;;;
2019/04/01 00:06:20;;;;;;;4.3;3.9;;;;;;;24.18;25.64551;1005.71;;;;
2019/04/01 00:08:53;;;;;;;3.6;3.3;;;;;;;24.17;25.65723;1005.771;;;;
2019/04/01 00:11:29;;;;;;;4.3;3.9;;;;;;;24.18;25.64551;1005.815;;;;
2019/04/01 00:14:02;;;;;;;3.6;3.3;;;;;;;24.16;25.66797;1005.778;;;;
2019/04/01 00:16:38;;;;;;;4;3.7;;;;;;;24.15;25.69141;1005.821;;;;
2019/04/01 00:19:06;;;;;;;4.4;4;;;;;;;24.16;25.67969;1005.77;;;;
2019/04/01 00:21:41;;;;;;;3.9;3.6;;;;;;;24.15;25.69141;1005.807;;;;
2019/04/01 00:24:12;;;;;;;3.9;3.6;;;;;;;24.14;25.71484;1005.732;;;;
2019/04/01 00:26:44;;;;;;;4.3;4;;;;;;;24.13;25.72559;1005.706;;;;
2019/04/01 00:29:18;;;;;;;4;3.7;;;;;;;24.12;25.73633;1005.759;;;;
2019/04/01 00:31:49;;;;;;;4;3.6;;;;;;;24.13;25.7373;1005.763;;;;
2019/04/01 00:34:15;;;;;;;4.4;4;;;;;;;24.12;25.74902;1005.737;;;;
2019/04/01 00:36:49;;;;;;;4.4;4;;;;;;;24.13;25.7373;1005.784;;;;
2019/04/01 00:39:22;;;;;;;4.3;4;;;;;;;24.11;25.76074;1005.701;;;;
2019/04/01 00:44:22;;;;;;;4.4;4;;;;;;;24.11;25.76074;1005.784;;;;
2019/04/01 00:46:48;;;;;;;4.4;4;;;;;;;24.1;25.78223;1005.796;;;;
2019/04/01 00:49:23;;;;;;;4.2;3.8;;;;;;;24.09;25.79395;1005.766;;;;
2019/04/01 00:51:52;;;;;;;4.5;4.1;;;;;;;24.07;25.81641;1005.789;;;;
2019/04/01 00:54:26;;;;;;;4.1;3.8;;;;;;;24.04;25.85059;1005.768;;;;
2019/04/01 00:56:53;;;;;;;4.3;4;;;;;;;24.05;25.85059;1005.669;;;;
2019/04/01 00:59:20;;;;;;;4.3;3.9;;;;;;;24.04;25.8623;1005.753;;;;
2019/04/01 01:01:52;;;;;;;4.4;4;;;;;;;24.02;25.88477;1005.703;;;;
2019/04/01 01:04:18;;;;;;;4.8;4.3;;;;;;;24.03;25.87402;1005.695;;;;
2019/04/01 01:06:50;;;;;;;4.1;3.8;;;;;;;24.02;25.88477;1005.704;;;;
2019/04/01 01:09:19;;;;;;;4.2;3.9;;;;;;;24.02;25.88477;1005.753;;;;
2019/04/01 01:11:51;;;;;;;4.7;4.3;;;;;;;24;25.91895;1005.725;;;;
2019/04/01 01:14:25;;;;;;;4.4;4.1;;;;;;;23.98;25.94238;1005.655;;;;
2019/04/01 01:16:55;;;;;;;4.5;4.1;;;;;;;23.98;25.95313;1005.698;;;;
2019/04/01 01:19:27;;;;;;;4.5;4.1;;;;;;;23.98;25.94238;1005.675;;;;
2019/04/01 01:21:57;;;;;;;4.6;4.2;;;;;;;23.98;25.94141;1005.698;;;;
2019/04/01 01:24:27;;;;;;;4.8;4.4;;;;;;;23.97;25.97656;1005.672;;;;
2019/04/01 01:26:55;;;;;;;4.2;3.9;;;;;;;23.95;25.98633;1005.646;;;;
2019/04/01 01:29:24;;;;;;;4.6;4.2;;;;;;;23.94;26.02246;1005.596;;;;
2019/04/01 01:31:53;;;;;;;4.8;4.4;;;;;;;23.94;26.02246;1005.602;;;;
2019/04/01 01:34:18;;;;;;;4.9;4.5;;;;;;;23.93;26.02148;1005.598;;;;
2019/04/01 01:36:51;;;;;;;4.4;4;;;;;;;23.92;26.03223;1005.601;;;;
2019/04/01 01:39:23;;;;;;;4.9;4.4;;;;;;;23.92;26.0332;1005.609;;;;
2019/04/01 01:41:56;;;;;;;4.5;4.1;;;;;;;23.92;26.0332;1005.619;;;;
2019/04/01 01:44:27;;;;;;;4.5;4.1;;;;;;;23.9;26.05566;1005.573;;;;
2019/04/01 01:46:52;;;;;;;4.4;4.1;;;;;;;23.89;26.07813;1005.562;;;;
2019/04/01 01:49:30;;;;;;;4.9;4.5;;;;;;;23.89;26.07813;1005.521;;;;
2019/04/01 01:52:02;;;;;;;4.6;4.2;;;;;;;23.88;26.10156;1005.56;;;;
2019/04/01 01:54:31;;;;;;;4.9;4.5;;;;;;;23.87;26.10059;1005.497;;;;
2019/04/01 01:57:02;;;;;;;5;4.6;;;;;;;23.87;26.10059;1005.483;;;;
2019/04/01 01:59:27;;;;;;;4.3;4;;;;;;;23.87;26.10059;1005.542;;;;
2019/04/01 02:01:58;;;;;;;5;4.5;;;;;;;23.87;26.1123;1005.548;;;;
2019/04/01 02:04:24;;;;;;;4.8;4.4;;;;;;;23.85;26.12305;1005.455;;;;
2019/04/01 02:06:54;;;;;;;5.1;4.7;;;;;;;23.85;26.13574;1005.496;;;;
2019/04/01 02:09:29;;;;;;;4.7;4.3;;;;;;;23.85;26.13574;1005.537;;;;
2019/04/01 02:11:58;;;;;;;4.6;4.2;;;;;;;23.85;26.13574;1005.515;;;;
2019/04/01 02:14:30;;;;;;;5;4.6;;;;;;;23.86;26.13574;1005.518;;;;
2019/04/01 02:17:01;;;;;;;4.8;4.4;;;;;;;23.85;26.13477;1005.511;;;;
2019/04/01 02:19:35;;;;;;;4.9;4.4;;;;;;;23.85;26.13574;1005.515;;;;
2019/04/01 02:22:04;;;;;;;4.7;4.3;;;;;;;23.84;26.14648;1005.493;;;;
2019/04/01 02:24:31;;;;;;;4.7;4.3;;;;;;;23.83;26.14648;1005.477;;;;
2019/04/01 02:27:07;;;;;;;4.7;4.3;;;;;;;23.85;26.13477;1005.415;;;;
2019/04/01 02:29:32;;;;;;;4.8;4.4;;;;;;;23.83;26.13477;1005.414;;;;
2019/04/01 02:31:59;;;;;;;4.8;4.4;;;;;;;23.81;26.15625;1005.404;;;;
2019/04/01 02:34:33;;;;;;;4.8;4.4;;;;;;;23.83;26.14551;1005.41;;;;
2019/04/01 02:37:06;;;;;;;4.8;4.4;;;;;;;23.82;26.15723;1005.375;;;;
2019/04/01 02:39:39;;;;;;;5;4.6;;;;;;;23.82;26.15723;1005.462;;;;
2019/04/01 02:42:05;;;;;;;4.6;4.2;;;;;;;23.82;26.14551;1005.488;;;;
2019/04/01 02:44:39;;;;;;;5;4.6;;;;;;;23.83;26.14551;1005.41;;;;
2019/04/01 02:47:05;;;;;;;5.2;4.7;;;;;;;23.82;26.14551;1005.425;;;;
2019/04/01 02:49:36;;;;;;;4.8;4.4;;;;;;;23.82;26.13281;1005.462;;;;
2019/04/01 02:52:04;;;;;;;4.4;4.1;;;;;;;23.8;26.16797;1005.466;;;;
2019/04/01 02:54:35;;;;;;;4.9;4.5;;;;;;;23.81;26.16797;1005.474;;;;
2019/04/01 02:57:05;;;;;;;4.9;4.5;;;;;;;23.79;26.16699;1005.426;;;;
2019/04/01 02:59:34;;;;;;;4.8;4.4;;;;;;;23.78;26.19043;1005.396;;;;
2019/04/01 03:02:00;;;;;;;5;4.6;;;;;;;23.78;26.17871;1005.465;;;;
2019/04/01 03:04:30;;;;;;;4.8;4.4;;;;;;;23.78;26.19043;1005.424;;;;
2019/04/01 03:07:05;;;;;;;5.2;4.7;;;;;;;23.77;26.17773;1005.394;;;;
2019/04/01 03:09:33;;;;;;;5;4.6;;;;;;;23.77;26.20117;1005.417;;;;
2019/04/01 03:12:04;;;;;;;4.8;4.4;;;;;;;23.76;26.20117;1005.391;;;;
2019/04/01 03:14:34;;;;;;;5.1;4.7;;;;;;;23.76;26.22461;1005.434;;;;
2019/04/01 03:17:07;;;;;;;5.2;4.8;;;;;;;23.74;26.22363;1005.386;;;;
2019/04/01 03:19:42;;;;;;;5.6;4.8;;;;;;;23.76;26.25977;1005.448;;;;
2019/04/01 03:22:11;;;;;;;4.9;4.5;;;;;;;23.78;26.21387;1005.341;;;;
2019/04/01 03:24:43;;;;;;;5.3;4.9;;;;;;;23.8;26.2041;1005.438;;;;
2019/04/01 03:27:14;;;;;;;5.8;5.3;;;;;;;23.81;26.16797;1005.472;;;;
2019/04/01 03:29:45;;;;;;;5.1;4.7;;;;;;;23.81;26.16797;1005.45;;;;
2019/04/01 03:32:13;;;;;;;5.4;4.9;;;;;;;23.81;26.15625;1005.376;;;;
2019/04/01 03:34:45;;;;;;;5.2;4.8;;;;;;;23.82;26.15723;1005.516;;;;
2019/04/01 03:37:16;;;;;;;4.8;4.4;;;;;;;23.82;26.19336;1005.543;;;;
2019/04/01 03:39:50;;;;;;;4.9;4.5;;;;;;;23.82;26.24023;1005.471;;;;
2019/04/01 03:42:16;;;;;;;5.1;4.6;;;;;;;23.83;26.33496;1005.51;;;;
2019/04/01 03:44:48;;;;;;;5.1;4.7;;;;;;;23.84;26.33496;1005.481;;;;
2019/04/01 03:47:19;;;;;;;5.2;4.8;;;;;;;23.83;26.5127;1005.469;;;;
2019/04/01 03:49:52;;;;;;;5.9;5;;;;;;;23.84;26.42969;1005.468;;;;
2019/04/01 03:52:21;;;;;;;5.1;4.6;;;;;;;23.84;26.43066;1005.466;;;;
2019/04/01 03:54:51;;;;;;;5.1;4.6;;;;;;;23.85;26.4668;1005.578;;;;
2019/04/01 03:57:26;;;;;;;5.1;4.7;;;;;;;23.84;26.49023;1005.575;;;;
2019/04/01 03:59:53;;;;;;;5.2;4.8;;;;;;;23.85;26.4668;1005.565;;;;
2019/04/01 04:02:39;;;;;;;5.2;4.8;;;;;;;23.83;26.48828;1005.534;;;;
2019/04/01 04:05:09;;;;;;;5.3;4.8;;;;;;;23.8;26.58203;1005.552;;;;
2019/04/01 04:07:41;;;;;;;6.1;4.5;;;;;;;23.77;26.79297;1005.591;;;;
2019/04/01 04:10:11;;;;;;;5.3;4.8;;;;;;;23.78;26.78223;1005.59;;;;
2019/04/01 04:12:40;;;;;;;5;4.6;;;;;;;23.82;26.73633;1005.562;;;;
2019/04/01 04:15:09;;;;;;;4.9;4.5;;;;;;;23.81;26.68848;1005.609;;;;
2019/04/01 04:17:44;;;;;;;5;4.6;;;;;;;23.81;26.77148;1005.697;;;;
2019/04/01 04:20:17;;;;;;;5.3;4.8;;;;;;;23.83;26.83203;1005.638;;;;
2019/04/01 04:22:47;;;;;;;5.2;4.7;;;;;;;23.84;26.97461;1005.617;;;;
2019/04/01 04:25:18;;;;;;;4.5;4.1;;;;;;;23.85;26.97461;1005.607;;;;
2019/04/01 04:27:49;;;;;;;4.8;4.4;;;;;;;23.85;26.99805;1005.648;;;;
2019/04/01 04:30:22;;;;;;;5.1;4.7;;;;;;;23.86;27.02344;1005.651;;;;
2019/04/01 04:32:54;;;;;;;5.3;4.9;;;;;;;23.87;27.04785;1005.657;;;;
2019/04/01 04:35:19;;;;;;;5;4.6;;;;;;;23.87;27.03516;1005.638;;;;
2019/04/01 04:37:49;;;;;;;5;4.6;;;;;;;23.9;27.1084;1005.674;;;;
2019/04/01 04:40:14;;;;;;;5.1;4.7;;;;;;;23.92;27.09766;1005.67;;;;
2019/04/01 04:42:44;;;;;;;4.7;4.3;;;;;;;23.94;27.11133;1005.716;;;;
2019/04/01 04:45:19;;;;;;;4.2;3.9;;;;;;;23.95;27.00488;1005.667;;;;
2019/04/01 04:47:54;;;;;;;5;4.6;;;;;;;23.98;26.91211;1005.661;;;;
2019/04/01 04:50:25;;;;;;;4.9;4.5;;;;;;;23.99;26.86621;1005.713;;;;
2019/04/01 04:52:57;;;;;;;5.1;4.6;;;;;;;24.02;26.7959;1005.667;;;;
2019/04/01 04:55:30;;;;;;;4.9;4.5;;;;;;;24.04;26.73828;1005.707;;;;
2019/04/01 04:58:02;;;;;;;5.1;4.7;;;;;;;24.05;26.71582;1005.673;;;;
2019/04/01 05:00:36;;;;;;;4.9;4.5;;;;;;;24.07;26.68066;1005.707;;;;
2019/04/01 05:03:07;;;;;;;4.6;4.2;;;;;;;24.08;26.64551;1005.613;;;;
2019/04/01 05:05:38;;;;;;;4.8;4.4;;;;;;;24.08;26.62207;1005.721;;;;
2019/04/01 05:08:10;;;;;;;4.9;4.5;;;;;;;24.1;26.58789;1005.75;;;;
2019/04/01 05:10:41;;;;;;;4.9;4.5;;;;;;;24.11;26.56543;1005.701;;;;
2019/04/01 05:13:12;;;;;;;4.7;4.3;;;;;;;24.13;26.54297;1005.747;;;;
2019/04/01 05:15:43;;;;;;;5;4.5;;;;;;;24.15;26.51953;1005.735;;;;
2019/04/01 05:18:16;;;;;;;4.9;4.5;;;;;;;24.18;26.48535;1005.72;;;;
2019/04/01 05:20:50;;;;;;;5.4;4.9;;;;;;;24.19;26.46289;1005.791;;;;
2019/04/01 05:23:20;;;;;;;4.8;4.4;;;;;;;24.2;26.42773;1005.739;;;;
2019/04/01 05:25:55;;;;;;;4.9;4.5;;;;;;;24.22;26.39355;1005.724;;;;
2019/04/01 05:28:26;;;;;;;4.9;4.4;;;;;;;24.24;26.35938;1005.747;;;;
2019/04/01 05:30:57;;;;;;;5;4.6;;;;;;;24.26;26.3252;1005.711;;;;
2019/04/01 05:33:30;;;;;;;4.8;4.4;;;;;;;24.28;26.2793;1005.812;;;;
2019/04/01 05:35:56;;;;;;;4.9;4.4;;;;;;;24.3;26.25684;1005.75;;;;
2019/04/01 05:38:28;;;;;;;5.2;4.8;;;;;;;24.33;26.21094;1005.775;;;;
2019/04/01 05:41:00;;;;;;;5.2;4.8;;;;;;;24.35;26.16504;1005.788;;;;
2019/04/01 05:43:33;;;;;;;4.8;4.4;;;;;;;24.37;26.14258;1005.779;;;;
2019/04/01 05:46:04;;;;;;;4.9;4.5;;;;;;;24.4;26.09668;1005.823;;;;
2019/04/01 05:48:36;;;;;;;5.3;4.9;;;;;;;24.43;26.05078;1005.781;;;;
2019/04/01 05:51:08;;;;;;;5.3;4.8;;;;;;;24.45;26.0166;1005.822;;;;
2019/04/01 05:53:38;;;;;;;6.2;4.9;;;;;;;24.48;25.98242;1005.835;;;;
2019/04/01 05:56:09;;;;;;;5.6;5.1;;;;;;;24.5;25.93652;1005.758;;;;
2019/04/01 05:58:42;;;;;;;5.7;5.2;;;;;;;24.52;25.88965;1005.886;;;;
2019/04/01 06:01:40;;;;;;;5.4;4.9;;;;;;;24.55;25.84473;1005.898;;;;
2019/04/01 06:03:43;;;;;;;5.7;5.2;;;;;;;24.57;25.82227;1005.906;;;;
2019/04/01 06:06:13;;;;;;;5.5;4.9;;;;;;;24.59;25.79883;1005.935;;;;
2019/04/01 06:08:42;;;;;;;5.2;4.7;;;;;;;24.61;25.75391;1005.893;;;;
2019/04/01 06:11:13;;;;;;;5.8;5.3;;;;;;;24.64;25.70801;1005.955;;;;
2019/04/01 06:13:45;;;;;;;5.7;5.2;;;;;;;24.68;25.66211;1005.984;;;;
2019/04/01 06:16:15;;;;;;;5.6;5.1;;;;;;;24.74;25.57129;1006.003;;;;
2019/04/01 06:18:48;;;;;;;5.6;5;;;;;;;24.83;25.45801;1006.048;;;;
2019/04/01 06:21:16;;;;;;;5.5;5;;;;;;;24.91;25.36719;1006.009;;;;
2019/04/01 06:23:46;;;;;;;5.6;5.1;;;;;;;24.98;25.25195;1006.053;;;;
2019/04/01 06:26:17;;;;;;;5.5;5;;;;;;;25.04;25.18457;1006.082;;;;
2019/04/01 06:28:48;;;;;;;6.1;5.5;;;;;;;25.04;25.18555;1005.998;;;;
2019/04/01 06:31:21;;;;;;;5.9;5.4;;;;;;;25.08;25.12695;1005.982;;;;
2019/04/01 06:33:51;;;;;;;5.9;5.3;;;;;;;25.13;25.05957;1005.988;;;;
2019/04/01 06:36:20;;;;;;;6;5.4;;;;;;;25.18;25.00293;1005.979;;;;
2019/04/01 06:38:50;;;;;;;6.8;5.8;;;;;;;25.24;24.95898;1005.974;;;;
2019/04/01 06:41:23;;;;;;;5.7;5.2;;;;;;;25.33;24.8457;1005.955;;;;
2019/04/01 06:43:52;;;;;;;5.9;5.3;;;;;;;25.4;24.75391;1005.876;;;;
2019/04/01 06:46:23;;;;;;;5.6;5.1;;;;;;;25.45;24.68555;1005.952;;;;
2019/04/01 06:48:55;;;;;;;6.1;5.5;;;;;;;25.48;24.65137;1005.967;;;;
2019/04/01 06:51:24;;;;;;;6.2;5.6;;;;;;;25.54;24.61914;1005.943;;;;
2019/04/01 06:53:54;;;;;;;5.8;5.3;;;;;;;25.58;24.59766;1005.897;;;;
2019/04/01 06:56:26;;;;;;;5.8;5.3;;;;;;;25.61;24.5752;1005.905;;;;
2019/04/01 06:58:56;;;;;;;5.5;5;;;;;;;25.67;24.50684;1005.891;;;;
2019/04/01 07:01:28;;;;;;;6.2;5.7;;;;;;;25.71;24.47363;1005.923;;;;
2019/04/01 07:04:00;;;;;;;6.9;5.7;;;;;;;25.75;24.45313;1005.94;;;;
2019/04/01 07:06:28;;;;;;;6.1;5.5;;;;;;;25.81;24.4082;1005.888;;;;
2019/04/01 07:09:00;;;;;;;6;5.4;;;;;;;25.85;24.36328;1005.87;;;;
2019/04/01 07:11:31;;;;;;;6.9;5.5;;;;;;;25.89;24.3291;1005.898;;;;
2019/04/01 07:14:03;;;;;;;5.8;5.3;;;;;;;25.94;24.29688;1005.862;;;;
2019/04/01 07:16:34;;;;;;;5.7;5.2;;;;;;;26;24.26367;1005.814;;;;
2019/04/01 07:19:09;;;;;;;5.9;5.4;;;;;;;26.05;24.25488;1005.822;;;;
2019/04/01 07:21:34;;;;;;;6;5.4;;;;;;;26.1;24.18652;1005.783;;;;
2019/04/01 07:24:08;;;;;;;6.2;5.4;;;;;;;26.18;24.08398;1005.792;;;;
2019/04/01 07:26:36;;;;;;;5.8;5.2;;;;;;;26.25;23.99219;1005.819;;;;
2019/04/01 07:29:09;;;;;;;6.5;5.4;;;;;;;26.31;23.99512;1005.841;;;;
2019/04/01 07:31:39;;;;;;;5.7;5.2;;;;;;;26.4;23.83301;1005.854;;;;
2019/04/01 07:34:08;;;;;;;5.7;5.1;;;;;;;26.52;23.8877;1005.832;;;;
2019/04/01 07:36:42;;;;;;;6.9;5.5;;;;;;;26.57;23.91406;1005.765;;;;
2019/04/01 07:39:12;;;;;;;6.3;5.4;;;;;;;26.7;23.81348;1005.898;;;;
2019/04/01 07:41:46;;;;;;;7;5.6;;;;;;;26.93;23.62402;1005.823;;;;
2019/04/01 07:44:16;;;;;;;6;5.4;;;;;;;27.07;23.95215;1005.752;;;;
2019/04/01 07:46:50;;;;;;;6.4;4.9;;;;;;;27.44;23.33984;1005.849;;;;
2019/04/01 07:49:21;;;;;;;5.1;4.6;;;;;;;27.65;22.92188;1005.754;;;;
2019/04/01 07:51:51;;;;;;;10.5;9.4;;;;;;;27.45;23.63867;1005.837;;;;
2019/04/01 07:54:22;;;;;;;15.7;12.7;;;;;;;26.52;24.92285;1005.824;;;;
2019/04/01 07:57:01;;;;;;;18.5;16.5;;;;;;;25.94;25.29492;1005.786;;;;
2019/04/01 07:59:29;;;;;;;20;17.9;;;;;;;25.82;24.95605;1005.788;;;;
2019/04/01 08:01:56;;;;;;;21.6;17.8;;;;;;;25.54;25.24902;1005.709;;;;
2019/04/01 08:04:27;;;;;;;20.8;17.2;;;;;;;25.09;25.72168;1005.7;;;;
2019/04/01 08:06:54;;;;;;;19.7;16.5;;;;;;;25.69;25.01953;1005.675;;;;
2019/04/01 08:09:19;;;;;;;18.8;16.6;;;;;;;25.67;24.9707;1005.697;;;;
2019/04/01 08:12:02;;;;;;;19;16.3;;;;;;;26.24;24.24121;1005.665;;;;
2019/04/01 08:14:31;;;;;;;17.8;14;;;;;;;27.2;23.19629;1005.68;;;;
2019/04/01 08:17:01;;;;;;;11.1;9.9;;;;;;;28.51;22.37891;1005.591;;;;
2019/04/01 08:19:36;;;;;;;10.4;8.9;;;;;;;28.68;21.99316;1005.561;;;;
2019/04/01 08:22:09;;;;;;;12.3;8.6;;;;;;;29.23;21.5293;1005.612;;;;
2019/04/01 08:24:38;;;;;;;13.8;11.5;;;;;;;29.03;21.125;1005.736;;;;
2019/04/01 08:27:14;;;;;;;18.1;16.2;;;;;;;28.42;21.75293;1005.643;;;;
2019/04/01 08:29:43;;;;;;;24.5;21.4;;;;;;;27.28;22.71191;1005.746;;;;
2019/04/01 08:32:16;;;;;;;24.3;20.9;;;;;;;27.46;22.61426;1005.604;;;;
2019/04/01 08:34:48;;;;;;;16.9;14.4;;;;;;;28.92;21.02441;1005.683;;;;
2019/04/01 08:37:19;;;;;;;11.7;9.6;;;;;;;29.74;20.1875;1005.61;;;;
2019/04/01 08:39:49;;;;;;;10.6;9.5;;;;;;;30.15;19.70215;1005.606;;;;
2019/04/01 08:42:19;;;;;;;10.8;8.5;;;;;;;30.25;19.65723;1005.652;;;;
2019/04/01 08:44:49;;;;;;;9;8.1;;;;;;;30.41;19.59277;1005.632;;;;
2019/04/01 08:47:20;;;;;;;9.1;7.8;;;;;;;30.58;19.52832;1005.675;;;;
2019/04/01 08:49:49;;;;;;;8.3;7.4;;;;;;;30.77;19.45215;1005.569;;;;
2019/04/01 08:52:20;;;;;;;8.9;7;;;;;;;30.93;19.45898;1005.577;;;;
2019/04/01 08:54:53;;;;;;;7.4;6.7;;;;;;;30.59;19.84082;1005.565;;;;
2019/04/01 08:57:29;;;;;;;7.9;6.7;;;;;;;29.32;21.44922;1005.582;;;;
2019/04/01 08:59:59;;;;;;;8.8;7.1;;;;;;;28.32;22.69336;1005.531;;;;
2019/04/01 09:02:31;;;;;;;8.1;6.5;;;;;;;28.12;23.17285;1005.619;;;;
2019/04/01 09:05:01;;;;;;;7;6.3;;;;;;;27.91;23.34082;1005.657;;;;
2019/04/01 09:07:33;;;;;;;7.3;6;;;;;;;27.71;23.72461;1005.583;;;;
2019/04/01 09:10:02;;;;;;;8;6;;;;;;;27.73;23.78516;1005.615;;;;
2019/04/01 09:12:33;;;;;;;7.7;5.8;;;;;;;27.55;24.01367;1005.593;;;;
2019/04/01 09:15:03;;;;;;;7.2;5.8;;;;;;;27.53;24.07324;1005.472;;;;
2019/04/01 09:17:39;;;;;;;6.9;6.1;;;;;;;27.41;24.30371;1005.483;;;;
2019/04/01 09:20:03;;;;;;;6.5;5.6;;;;;;;27.7;24.0459;1005.486;;;;
2019/04/01 09:22:39;;;;;;;7.3;5.7;;;;;;;27.73;24.01172;1005.442;;;;
2019/04/01 09:25:05;;;;;;;8.1;5.7;;;;;;;27.41;24.42383;1005.412;;;;
2019/04/01 09:27:33;;;;;;;8.2;5.9;;;;;;;27.42;24.72266;1005.356;;;;
2019/04/01 09:30:07;;;;;;;6.8;5.3;;;;;;;27.32;24.61035;1005.318;;;;
2019/04/01 09:32:37;;;;;;;6.8;5.6;;;;;;;27.2;24.76953;1005.269;;;;
2019/04/01 09:35:08;;;;;;;9.1;5.9;;;;;;;27.14;24.85059;1005.296;;;;
2019/04/01 09:37:40;;;;;;;7.9;6.7;;;;;;;27.12;24.80176;1005.222;;;;
2019/04/01 09:40:09;;;;;;;7.1;5.7;;;;;;;27.01;24.9502;1005.237;;;;
2019/04/01 09:42:39;;;;;;;7;5.8;;;;;;;26.92;24.99316;1005.201;;;;
2019/04/01 09:45:08;;;;;;;7.1;6.4;;;;;;;26.92;24.95703;1005.124;;;;
2019/04/01 09:47:39;;;;;;;8.4;6.4;;;;;;;26.93;25.05371;1005.148;;;;
2019/04/01 09:50:12;;;;;;;8.2;5.7;;;;;;;26.9;25.11035;1005.088;;;;
2019/04/01 09:52:43;;;;;;;7.7;5.7;;;;;;;26.82;25.1416;1005.087;;;;
2019/04/01 09:55:15;;;;;;;7.5;5.7;;;;;;;26.86;25.1084;1005.077;;;;
2019/04/01 09:57:45;;;;;;;6.1;5.5;;;;;;;26.83;25.04785;1005.08;;;;
2019/04/01 10:00:14;;;;;;;6.9;5.7;;;;;;;26.7;25.16016;1004.966;;;;
2019/04/01 10:02:40;;;;;;;6.4;5.7;;;;;;;26.7;25.2666;1004.962;;;;
2019/04/01 10:05:09;;;;;;;6.9;5.5;;;;;;;26.82;25.30859;1004.867;;;;
2019/04/01 10:07:42;;;;;;;8.3;6.1;;;;;;;26.81;25.45117;1004.75;;;;
2019/04/01 10:10:10;;;;;;;7.1;5.5;;;;;;;26.79;25.85547;1004.818;;;;
2019/04/01 10:12:40;;;;;;;12.7;5.4;;;;;;;26.72;25.51758;1004.912;;;;
2019/04/01 10:15:10;;;;;;;6.2;5.5;;;;;;;26.63;25.6084;1004.844;;;;
2019/04/01 10:17:38;;;;;;;6.2;5.4;;;;;;;26.68;25.6582;1004.816;;;;
2019/04/01 10:20:05;;;;;;;9;6;;;;;;;26.67;25.91992;1004.79;;;;
2019/04/01 10:22:33;;;;;;;7.7;5.5;;;;;;;26.64;25.72754;1004.765;;;;
2019/04/01 10:25:00;;;;;;;7.5;5.6;;;;;;;26.71;25.94531;1004.74;;;;
2019/04/01 10:27:32;;;;;;;5.9;5.2;;;;;;;26.67;26.0498;1004.731;;;;
2019/04/01 10:30:05;;;;;;;9.2;5.8;;;;;;;26.55;25.88867;1004.762;;;;
2019/04/01 10:32:37;;;;;;;6.2;5.6;;;;;;;26.53;25.9707;1004.66;;;;
2019/04/01 10:35:07;;;;;;;6.1;5.5;;;;;;;26.53;26.17285;1004.67;;;;
2019/04/01 10:37:38;;;;;;;8.5;5.6;;;;;;;26.54;26.62598;1004.673;;;;
2019/04/01 10:40:08;;;;;;;7.5;6;;;;;;;26.4;26.58203;1004.667;;;;
2019/04/01 10:42:39;;;;;;;8.6;5.7;;;;;;;26.29;26.61133;1004.572;;;;
2019/04/01 10:45:10;;;;;;;7.7;5.6;;;;;;;26.2;26.53418;1004.596;;;;
2019/04/01 10:47:41;;;;;;;7;5.9;;;;;;;26.19;26.40332;1004.511;;;;
2019/04/01 10:50:11;;;;;;;6.8;5.3;;;;;;;26.13;26.35254;1004.533;;;;
2019/04/01 10:52:42;;;;;;;7.8;5.7;;;;;;;26.1;26.30273;1004.6;;;;
2019/04/01 10:55:13;;;;;;;8.1;6;;;;;;;26.09;26.27832;1004.519;;;;
2019/04/01 10:57:43;;;;;;;5.7;5.1;;;;;;;26.09;26.23145;1004.454;;;;
2019/04/01 11:00:14;;;;;;;5.9;5.3;;;;;;;26.08;26.24219;1004.458;;;;
2019/04/01 11:02:46;;;;;;;6.2;5.3;;;;;;;26.06;26.38379;1004.392;;;;
2019/04/01 11:05:16;;;;;;;5.7;5.2;;;;;;;25.98;26.47461;1004.265;;;;
2019/04/01 11:07:46;;;;;;;5.8;5.3;;;;;;;25.94;26.49609;1004.346;;;;
2019/04/01 11:10:17;;;;;;;6.1;5.5;;;;;;;25.92;26.55371;1004.292;;;;
2019/04/01 11:12:47;;;;;;;6.2;5.5;;;;;;;25.95;26.47266;1004.216;;;;
2019/04/01 11:15:18;;;;;;;6.7;5.8;;;;;;;25.91;26.55273;1004.166;;;;
2019/04/01 11:17:49;;;;;;;6.1;5.5;;;;;;;25.87;26.62207;1004.178;;;;
2019/04/01 11:20:19;;;;;;;6.5;5.9;;;;;;;25.84;26.57324;1004.133;;;;
2019/04/01 11:22:50;;;;;;;5.9;5.3;;;;;;;25.87;26.5625;1004.137;;;;
2019/04/01 11:25:21;;;;;;;5.9;5.3;;;;;;;25.83;26.60742;1004.133;;;;
2019/04/01 11:27:51;;;;;;;6.2;5.2;;;;;;;25.81;26.60645;1004.026;;;;
2019/04/01 11:30:22;;;;;;;6.5;5.8;;;;;;;25.79;26.55762;1004.054;;;;
2019/04/01 11:32:54;;;;;;;6.2;5.4;;;;;;;25.83;26.82227;1003.994;;;;
2019/04/01 11:35:23;;;;;;;6.4;5.3;;;;;;;25.82;26.83398;1004.001;;;;
2019/04/01 11:37:55;;;;;;;6.2;5.6;;;;;;;25.79;26.74805;1003.953;;;;
2019/04/01 11:40:25;;;;;;;7;5.3;;;;;;;25.75;26.85254;1003.902;;;;
2019/04/01 11:42:55;;;;;;;6.4;5.7;;;;;;;25.74;26.95898;1003.899;;;;
2019/04/01 11:45:28;;;;;;;6.6;5.9;;;;;;;25.75;27.07813;1003.802;;;;
2019/04/01 11:47:56;;;;;;;6.9;5.7;;;;;;;25.77;27.40039;1003.769;;;;
2019/04/01 11:50:27;;;;;;;7.2;6.1;;;;;;;25.61;27.16504;1003.745;;;;
2019/04/01 11:52:58;;;;;;;28.3;23.2;;;;;;;21.4;33.89844;1003.649;;;;
2019/04/01 11:55:28;;;;;;;31.9;24.9;;;;;;;21.7;33.30859;1003.633;;;;
2019/04/01 11:58:04;;;;;;;32.6;25.2;;;;;;;21.18;34.1875;1003.566;;;;
2019/04/01 12:00:31;;;;;;;29.4;22.4;;;;;;;21.5;33.82422;1003.555;;;;
2019/04/01 12:03:00;;;;;;;20.1;16.7;;;;;;;23.01;31.3291;1003.509;;;;
2019/04/01 12:05:33;;;;;;;15;11.8;;;;;;;23.79;30.18945;1003.445;;;;
2019/04/01 12:08:03;;;;;;;11.9;10.5;;;;;;;24.19;29.80273;1003.474;;;;
2019/04/01 12:10:34;;;;;;;12.4;10;;;;;;;24.49;29.6084;1003.509;;;;
2019/04/01 12:13:05;;;;;;;11.2;9.4;;;;;;;24.66;29.59668;1003.413;;;;
2019/04/01 12:15:36;;;;;;;11;8.3;;;;;;;24.8;29.45215;1003.332;;;;
2019/04/01 12:18:08;;;;;;;9.9;7.7;;;;;;;24.89;30.02734;1003.235;;;;
2019/04/01 12:20:37;;;;;;;10.1;7.4;;;;;;;24.99;30.16406;1003.277;;;;
2019/04/01 12:23:08;;;;;;;8.8;7.6;;;;;;;25.03;29.73926;1003.223;;;;
2019/04/01 12:25:39;;;;;;;9.8;6.9;;;;;;;25.05;29.75293;1003.219;;;;
2019/04/01 12:28:09;;;;;;;8.5;7.4;;;;;;;25.09;29.45801;1003.128;;;;
2019/04/01 12:30:40;;;;;;;10.7;7.4;;;;;;;25.13;29.21191;1003.055;;;;
2019/04/01 12:33:10;;;;;;;7.4;6.6;;;;;;;25.16;29.83105;1003.084;;;;
2019/04/01 12:35:41;;;;;;;12.8;6.8;;;;;;;25.19;29.66699;1003.042;;;;
2019/04/01 12:38:11;;;;;;;8.3;6.7;;;;;;;25.22;29.37207;1002.957;;;;
2019/04/01 12:40:42;;;;;;;7.7;6.7;;;;;;;25.23;29.68164;1002.913;;;;
2019/04/01 12:43:13;;;;;;;8.1;6.6;;;;;;;25.27;29.85059;1002.9;;;;
2019/04/01 12:45:43;;;;;;;11.2;7.2;;;;;;;25.26;29.55273;1002.861;;;;
2019/04/01 12:48:14;;;;;;;9.2;6.8;;;;;;;25.35;29.96191;1002.792;;;;
2019/04/01 12:50:45;;;;;;;7.6;6.5;;;;;;;25.31;29.93555;1002.818;;;;
2019/04/01 12:53:16;;;;;;;9.4;7;;;;;;;25.33;29.66504;1002.722;;;;
2019/04/01 12:55:46;;;;;;;10.6;6.8;;;;;;;25.29;29.6377;1002.693;;;;
2019/04/01 12:58:17;;;;;;;8.2;6.9;;;;;;;25.3;29.62695;1002.637;;;;
2019/04/01 13:00:49;;;;;;;8.1;7.1;;;;;;;25.29;29.13965;1002.603;;;;
2019/04/01 13:03:18;;;;;;;9.5;7.3;;;;;;;25.3;29.04492;1002.633;;;;
2019/04/01 13:05:49;;;;;;;8.7;6.7;;;;;;;25.29;29.0332;1002.552;;;;
2019/04/01 13:08:20;;;;;;;9.8;7.6;;;;;;;25.29;28.99707;1002.483;;;;
2019/04/01 13:10:51;;;;;;;9.2;7.9;;;;;;;25.33;29;1002.461;;;;
2019/04/01 13:13:21;;;;;;;8.1;7.2;;;;;;;25.31;28.60645;1002.398;;;;
2019/04/01 13:15:52;;;;;;;8.3;7.4;;;;;;;25.28;28.37891;1002.391;;;;
2019/04/01 13:18:24;;;;;;;9.5;7.9;;;;;;;25.26;28.31836;1002.37;;;;
2019/04/01 13:20:53;;;;;;;8.7;7.5;;;;;;;25.29;28.74805;1002.25;;;;
2019/04/01 13:23:24;;;;;;;10.9;7.5;;;;;;;25.31;28.59473;1002.259;;;;
2019/04/01 13:25:55;;;;;;;11.2;7.8;;;;;;;25.31;28.5;1002.176;;;;
2019/04/01 13:28:25;;;;;;;10.1;7.8;;;;;;;25.33;28.58496;1002.154;;;;
2019/04/01 13:30:56;;;;;;;8.3;6.4;;;;;;;25.37;28.66992;1002.204;;;;
2019/04/01 13:33:27;;;;;;;7.8;6.4;;;;;;;25.4;28.87305;1002.13;;;;
2019/04/01 13:35:57;;;;;;;7.5;6.1;;;;;;;25.43;29.13672;1002.063;;;;
2019/04/01 13:38:28;;;;;;;6.6;6;;;;;;;25.42;29.07715;1002.075;;;;
2019/04/01 13:40:59;;;;;;;7.4;6.7;;;;;;;25.44;28.97168;1002.052;;;;
2019/04/01 13:43:30;;;;;;;9.4;7.4;;;;;;;25.44;29.07813;1002.024;;;;
2019/04/01 13:46:04;;;;;;;8.2;6.7;;;;;;;25.44;29.17285;1002.111;;;;
2019/04/01 13:48:34;;;;;;;8.5;6.9;;;;;;;25.42;29.08887;1001.951;;;;
2019/04/01 13:51:06;;;;;;;10.9;8.4;;;;;;;25.45;29.04297;1002.013;;;;
2019/04/01 13:53:35;;;;;;;9.3;7.8;;;;;;;25.43;29.08984;1001.957;;;;
2019/04/01 13:56:06;;;;;;;8.7;7.6;;;;;;;25.45;28.85352;1001.907;;;;
2019/04/01 13:58:38;;;;;;;9.9;8.4;;;;;;;25.45;28.97168;1001.867;;;;
2019/04/01 14:01:07;;;;;;;10.6;9;;;;;;;25.45;28.65137;1001.862;;;;
2019/04/01 14:03:39;;;;;;;9.8;7.8;;;;;;;25.46;28.87793;1001.805;;;;
2019/04/01 14:06:09;;;;;;;8.7;7.8;;;;;;;25.45;28.53223;1001.797;;;;
2019/04/01 14:08:39;;;;;;;8.3;7.5;;;;;;;25.47;28.59277;1001.79;;;;
2019/04/01 14:11:11;;;;;;;8.8;7.9;;;;;;;25.48;28.72461;1001.81;;;;
2019/04/01 14:13:41;;;;;;;10.1;7.5;;;;;;;25.5;29.09375;1001.687;;;;
2019/04/01 14:16:12;;;;;;;7.8;7.1;;;;;;;25.49;28.93848;1001.62;;;;
2019/04/01 14:18:42;;;;;;;7.2;6.4;;;;;;;25.5;28.82129;1001.644;;;;
2019/04/01 14:21:13;;;;;;;6.7;5.8;;;;;;;25.52;28.65527;1001.554;;;;
2019/04/01 14:23:44;;;;;;;5.8;5.2;;;;;;;25.53;28.79883;1001.543;;;;
2019/04/01 14:26:14;;;;;;;6.2;5.3;;;;;;;25.52;28.8457;1001.558;;;;
2019/04/01 14:28:45;;;;;;;7.5;5.4;;;;;;;25.52;28.78613;1001.493;;;;
2019/04/01 14:31:17;;;;;;;7.2;5.8;;;;;;;25.53;28.87012;1001.543;;;;
2019/04/01 14:33:48;;;;;;;9;6;;;;;;;25.52;28.91699;1001.48;;;;
2019/04/01 14:36:17;;;;;;;8.1;6.2;;;;;;;25.51;29.07129;1001.477;;;;
2019/04/01 14:38:48;;;;;;;9.1;6.7;;;;;;;25.48;28.99805;1001.433;;;;
2019/04/01 14:41:18;;;;;;;7.5;6.3;;;;;;;25.48;29.0332;1001.41;;;;
2019/04/01 14:43:49;;;;;;;7.2;5.9;;;;;;;25.49;29.00977;1001.414;;;;
2019/04/01 14:46:20;;;;;;;7.8;7;;;;;;;25.51;28.84473;1001.442;;;;